sensor_id;sensor_type;location;lat;lon;timestamp;pressure;altitude;pressure_sealevel;temperature;humidity
43119;BME280;28729;49.838;8.650;2023-11-19T00:02:41;99595.19;;;9.06;100.00
43119;BME280;28729;49.838;8.650;2023-11-19T00:06:44;99591.97;;;9.09;100.00
43119;BME280;28729;49.838;8.650;2023-11-19T00:10:47;99601.63;;;9.11;100.00
43119;BME280;28729;49.838;8.650;2023-11-19T00:14:49;99592.28;;;9.12;100.00
43119;BME280;28729;49.838;8.650;2023-11-19T00:18:52;99597.91;;;9.18;100.00
43119;BME280;28729;49.838;8.650;2023-11-19T00:22:54;99598.72;;;9.18;100.00
43119;BME280;28729;49.838;8.650;2023-11-19T00:27:03;99589.50;;;9.24;100.00
43119;BME280;28729;49.838;8.650;2023-11-19T00:31:05;99587.66;;;9.30;100.00
43119;BME280;28729;49.838;8.650;2023-11-19T00:35:08;99597.13;;;9.34;100.00
43119;BME280;28729;49.838;8.650;2023-11-19T00:39:13;99601.25;;;9.36;100.00
43119;BME280;28729;49.838;8.650;2023-11-19T00:43:16;99592.88;;;9.43;100.00
43119;BME280;28729;49.838;8.650;2023-11-19T00:47:18;99581.88;;;9.43;100.00
43119;BME280;28729;49.838;8.650;2023-11-19T00:51:23;99578.97;;;9.50;100.00
43119;BME280;28729;49.838;8.650;2023-11-19T00:55:24;99579.88;;;9.55;100.00
43119;BME280;28729;49.838;8.650;2023-11-19T00:59:26;99587.03;;;9.56;100.00
43119;BME280;28729;49.838;8.650;2023-11-19T01:03:31;99570.53;;;9.56;100.00
43119;BME280;28729;49.838;8.650;2023-11-19T01:07:34;99583.78;;;9.59;100.00
43119;BME280;28729;49.838;8.650;2023-11-19T01:11:37;99569.88;;;9.66;100.00
43119;BME280;28729;49.838;8.650;2023-11-19T01:15:39;99579.31;;;9.70;100.00
43119;BME280;28729;49.838;8.650;2023-11-19T01:19:44;99580.97;;;9.71;100.00
43119;BME280;28729;49.838;8.650;2023-11-19T01:23:46;99579.53;;;9.69;100.00
43119;BME280;28729;49.838;8.650;2023-11-19T01:27:47;99566.06;;;9.67;100.00
43119;BME280;28729;49.838;8.650;2023-11-19T01:31:50;99545.97;;;9.67;100.00
43119;BME280;28729;49.838;8.650;2023-11-19T01:35:55;99548.72;;;9.67;100.00
43119;BME280;28729;49.838;8.650;2023-11-19T01:40:00;99534.38;;;9.65;100.00
43119;BME280;28729;49.838;8.650;2023-11-19T01:44:06;99515.13;;;9.65;100.00
43119;BME280;28729;49.838;8.650;2023-11-19T01:48:07;99520.34;;;9.66;100.00
43119;BME280;28729;49.838;8.650;2023-11-19T01:52:13;99522.38;;;9.71;100.00
43119;BME280;28729;49.838;8.650;2023-11-19T01:56:15;99516.34;;;9.74;100.00
43119;BME280;28729;49.838;8.650;2023-11-19T02:00:19;99529.94;;;9.80;100.00
43119;BME280;28729;49.838;8.650;2023-11-19T02:04:21;99517.69;;;9.88;100.00
43119;BME280;28729;49.838;8.650;2023-11-19T02:08:26;99499.56;;;9.92;100.00
43119;BME280;28729;49.838;8.650;2023-11-19T02:12:28;99488.38;;;9.99;100.00
43119;BME280;28729;49.838;8.650;2023-11-19T02:16:30;99470.78;;;10.00;100.00
43119;BME280;28729;49.838;8.650;2023-11-19T02:20:32;99471.09;;;10.03;100.00
43119;BME280;28729;49.838;8.650;2023-11-19T02:24:34;99447.16;;;10.04;100.00
43119;BME280;28729;49.838;8.650;2023-11-19T02:28:36;99460.69;;;10.06;100.00
43119;BME280;28729;49.838;8.650;2023-11-19T02:32:42;99468.16;;;10.10;100.00
43119;BME280;28729;49.838;8.650;2023-11-19T02:36:44;99460.56;;;10.17;100.00
43119;BME280;28729;49.838;8.650;2023-11-19T02:40:48;99455.88;;;10.18;100.00
43119;BME280;28729;49.838;8.650;2023-11-19T02:44:51;99462.53;;;10.22;100.00
43119;BME280;28729;49.838;8.650;2023-11-19T02:48:53;99446.59;;;10.24;100.00
43119;BME280;28729;49.838;8.650;2023-11-19T02:52:56;99437.34;;;10.30;100.00
43119;BME280;28729;49.838;8.650;2023-11-19T02:56:58;99435.16;;;10.32;100.00
43119;BME280;28729;49.838;8.650;2023-11-19T03:01:03;99430.47;;;10.33;100.00
43119;BME280;28729;49.838;8.650;2023-11-19T03:05:14;99419.25;;;10.39;100.00
43119;BME280;28729;49.838;8.650;2023-11-19T03:09:18;99424.75;;;10.39;100.00
43119;BME280;28729;49.838;8.650;2023-11-19T03:13:21;99431.41;;;10.43;100.00
43119;BME280;28729;49.838;8.650;2023-11-19T03:17:23;99431.41;;;10.43;100.00
43119;BME280;28729;49.838;8.650;2023-11-19T03:21:30;99433.91;;;10.45;100.00
43119;BME280;28729;49.838;8.650;2023-11-19T03:25:34;99443.00;;;10.45;100.00
43119;BME280;28729;49.838;8.650;2023-11-19T03:29:42;99451.28;;;10.45;100.00
43119;BME280;28729;49.838;8.650;2023-11-19T03:33:44;99424.50;;;10.41;100.00
43119;BME280;28729;49.838;8.650;2023-11-19T03:37:51;99421.44;;;10.37;100.00
43119;BME280;28729;49.838;8.650;2023-11-19T03:41:54;99415.91;;;10.37;100.00
43119;BME280;28729;49.838;8.650;2023-11-19T03:45:58;99405.69;;;10.33;100.00
43119;BME280;28729;49.838;8.650;2023-11-19T03:50:01;99406.50;;;10.33;100.00
43119;BME280;28729;49.838;8.650;2023-11-19T03:54:05;99423.28;;;10.32;100.00
43119;BME280;28729;49.838;8.650;2023-11-19T03:58:08;99422.25;;;10.38;100.00
43119;BME280;28729;49.838;8.650;2023-11-19T04:02:10;99417.84;;;10.37;100.00
43119;BME280;28729;49.838;8.650;2023-11-19T04:06:12;99406.59;;;10.38;100.00
43119;BME280;28729;49.838;8.650;2023-11-19T04:10:13;99398.03;;;10.40;100.00
43119;BME280;28729;49.838;8.650;2023-11-19T04:14:18;99409.38;;;10.43;100.00
43119;BME280;28729;49.838;8.650;2023-11-19T04:18:21;99407.78;;;10.47;100.00
43119;BME280;28729;49.838;8.650;2023-11-19T04:22:23;99396.50;;;10.49;100.00
43119;BME280;28729;49.838;8.650;2023-11-19T04:26:25;99402.59;;;10.51;100.00
43119;BME280;28729;49.838;8.650;2023-11-19T04:30:31;99405.69;;;10.60;100.00
43119;BME280;28729;49.838;8.650;2023-11-19T04:34:34;99411.75;;;10.62;100.00
43119;BME280;28729;49.838;8.650;2023-11-19T04:38:36;99404.09;;;10.64;100.00
43119;BME280;28729;49.838;8.650;2023-11-19T04:42:40;99397.22;;;10.66;100.00
43119;BME280;28729;49.838;8.650;2023-11-19T04:46:48;99403.25;;;10.63;100.00
43119;BME280;28729;49.838;8.650;2023-11-19T04:50:50;99400.81;;;10.67;100.00
43119;BME280;28729;49.838;8.650;2023-11-19T04:54:55;99392.00;;;10.70;100.00
43119;BME280;28729;49.838;8.650;2023-11-19T04:58:57;99405.03;;;10.75;100.00
43119;BME280;28729;49.838;8.650;2023-11-19T05:02:58;99390.13;;;10.76;100.00
43119;BME280;28729;49.838;8.650;2023-11-19T05:07:01;99402.06;;;10.81;100.00
43119;BME280;28729;49.838;8.650;2023-11-19T05:11:03;99391.09;;;10.86;100.00
43119;BME280;28729;49.838;8.650;2023-11-19T05:15:09;99398.81;;;10.89;100.00
43119;BME280;28729;49.838;8.650;2023-11-19T05:19:11;99395.25;;;10.89;100.00
43119;BME280;28729;49.838;8.650;2023-11-19T05:23:13;99385.88;;;10.90;100.00
43119;BME280;28729;49.838;8.650;2023-11-19T05:27:18;99381.19;;;10.90;100.00
43119;BME280;28729;49.838;8.650;2023-11-19T05:31:19;99382.59;;;10.93;100.00
43119;BME280;28729;49.838;8.650;2023-11-19T05:35:21;99377.94;;;10.99;100.00
43119;BME280;28729;49.838;8.650;2023-11-19T05:39:23;99380.47;;;11.05;100.00
43119;BME280;28729;49.838;8.650;2023-11-19T05:43:26;99378.53;;;11.06;100.00
43119;BME280;28729;49.838;8.650;2023-11-19T05:47:28;99367.00;;;11.09;100.00
43119;BME280;28729;49.838;8.650;2023-11-19T05:51:31;99357.09;;;11.13;100.00
43119;BME280;28729;49.838;8.650;2023-11-19T05:55:36;99369.31;;;11.22;100.00
43119;BME280;28729;49.838;8.650;2023-11-19T05:59:46;99369.66;;;11.31;100.00
43119;BME280;28729;49.838;8.650;2023-11-19T06:03:48;99373.28;;;11.41;100.00
43119;BME280;28729;49.838;8.650;2023-11-19T06:07:52;99381.03;;;11.45;100.00
43119;BME280;28729;49.838;8.650;2023-11-19T06:11:54;99375.56;;;11.50;100.00
43119;BME280;28729;49.838;8.650;2023-11-19T06:15:56;99385.75;;;11.49;100.00
43119;BME280;28729;49.838;8.650;2023-11-19T06:19:58;99380.28;;;11.54;100.00
43119;BME280;28729;49.838;8.650;2023-11-19T06:24:00;99397.13;;;11.58;100.00
43119;BME280;28729;49.838;8.650;2023-11-19T06:28:02;99394.63;;;11.56;100.00
43119;BME280;28729;49.838;8.650;2023-11-19T06:32:05;99385.81;;;11.54;100.00
43119;BME280;28729;49.838;8.650;2023-11-19T06:36:10;99389.69;;;11.58;100.00
43119;BME280;28729;49.838;8.650;2023-11-19T06:40:12;99391.63;;;11.58;100.00
43119;BME280;28729;49.838;8.650;2023-11-19T06:44:14;99399.31;;;11.56;100.00
43119;BME280;28729;49.838;8.650;2023-11-19T06:48:16;99398.22;;;11.57;100.00
43119;BME280;28729;49.838;8.650;2023-11-19T06:52:17;99403.44;;;11.53;100.00
43119;BME280;28729;49.838;8.650;2023-11-19T06:56:21;99408.66;;;11.50;100.00
43119;BME280;28729;49.838;8.650;2023-11-19T07:00:23;99409.22;;;11.52;100.00
43119;BME280;28729;49.838;8.650;2023-11-19T07:04:26;99425.25;;;11.55;100.00
43119;BME280;28729;49.838;8.650;2023-11-19T07:08:28;99425.03;;;11.61;100.00
43119;BME280;28729;49.838;8.650;2023-11-19T07:12:30;99419.25;;;11.63;100.00
43119;BME280;28729;49.838;8.650;2023-11-19T07:16:35;99427.00;;;11.66;100.00
43119;BME280;28729;49.838;8.650;2023-11-19T07:20:40;99420.84;;;11.59;100.00
43119;BME280;28729;49.838;8.650;2023-11-19T07:24:42;99423.03;;;11.57;100.00
43119;BME280;28729;49.838;8.650;2023-11-19T07:28:44;99426.13;;;11.66;100.00
43119;BME280;28729;49.838;8.650;2023-11-19T07:32:46;99420.94;;;11.74;100.00
43119;BME280;28729;49.838;8.650;2023-11-19T07:36:48;99428.16;;;11.80;100.00
43119;BME280;28729;49.838;8.650;2023-11-19T07:40:50;99426.47;;;11.74;100.00
43119;BME280;28729;49.838;8.650;2023-11-19T07:44:55;99422.34;;;11.77;100.00
43119;BME280;28729;49.838;8.650;2023-11-19T07:48:58;99421.00;;;11.79;100.00
43119;BME280;28729;49.838;8.650;2023-11-19T07:52:59;99418.19;;;11.74;100.00
43119;BME280;28729;49.838;8.650;2023-11-19T07:57:02;99423.41;;;11.71;100.00
43119;BME280;28729;49.838;8.650;2023-11-19T08:01:04;99422.34;;;11.77;100.00
43119;BME280;28729;49.838;8.650;2023-11-19T08:05:07;99430.38;;;11.78;100.00
43119;BME280;28729;49.838;8.650;2023-11-19T08:09:08;99434.25;;;11.82;100.00
43119;BME280;28729;49.838;8.650;2023-11-19T08:13:15;99429.88;;;11.86;100.00
43119;BME280;28729;49.838;8.650;2023-11-19T08:17:21;99437.34;;;11.86;100.00
43119;BME280;28729;49.838;8.650;2023-11-19T08:21:24;99431.56;;;11.93;100.00
43119;BME280;28729;49.838;8.650;2023-11-19T08:25:29;99434.38;;;11.98;100.00
43119;BME280;28729;49.838;8.650;2023-11-19T08:29:31;99444.91;;;12.06;100.00
43119;BME280;28729;49.838;8.650;2023-11-19T08:33:34;99437.72;;;12.10;100.00
43119;BME280;28729;49.838;8.650;2023-11-19T08:37:36;99437.50;;;12.17;100.00
43119;BME280;28729;49.838;8.650;2023-11-19T08:41:39;99463.19;;;12.22;100.00
43119;BME280;28729;49.838;8.650;2023-11-19T08:45:41;99464.13;;;12.38;100.00
43119;BME280;28729;49.838;8.650;2023-11-19T08:49:44;99466.66;;;12.55;100.00
43119;BME280;28729;49.838;8.650;2023-11-19T08:53:46;99463.91;;;12.60;100.00
43119;BME280;28729;49.838;8.650;2023-11-19T08:57:48;99470.81;;;12.63;100.00
43119;BME280;28729;49.838;8.650;2023-11-19T09:01:50;99473.88;;;12.66;100.00
43119;BME280;28729;49.838;8.650;2023-11-19T09:05:52;99480.22;;;12.67;100.00
43119;BME280;28729;49.838;8.650;2023-11-19T09:09:54;99474.47;;;12.73;100.00
43119;BME280;28729;49.838;8.650;2023-11-19T09:13:57;99490.19;;;12.73;100.00
43119;BME280;28729;49.838;8.650;2023-11-19T09:18:00;99496.03;;;12.76;100.00
43119;BME280;28729;49.838;8.650;2023-11-19T09:22:02;99491.59;;;12.70;100.00
43119;BME280;28729;49.838;8.650;2023-11-19T09:26:05;99500.97;;;12.69;100.00
43119;BME280;28729;49.838;8.650;2023-11-19T09:30:08;99487.47;;;12.78;100.00
43119;BME280;28729;49.838;8.650;2023-11-19T09:34:09;99496.34;;;12.85;100.00
43119;BME280;28729;49.838;8.650;2023-11-19T09:38:12;99498.56;;;12.88;100.00
43119;BME280;28729;49.838;8.650;2023-11-19T09:42:14;99503.53;;;12.96;100.00
43119;BME280;28729;49.838;8.650;2023-11-19T09:46:16;99493.03;;;12.98;100.00
43119;BME280;28729;49.838;8.650;2023-11-19T09:50:19;99484.47;;;13.00;100.00
43119;BME280;28729;49.838;8.650;2023-11-19T09:54:21;99490.59;;;13.12;100.00
43119;BME280;28729;49.838;8.650;2023-11-19T09:58:23;99476.78;;;13.28;100.00
43119;BME280;28729;49.838;8.650;2023-11-19T10:02:27;99483.44;;;13.37;100.00
43119;BME280;28729;49.838;8.650;2023-11-19T10:06:32;99464.06;;;13.42;100.00
43119;BME280;28729;49.838;8.650;2023-11-19T10:10:35;99474.59;;;13.45;100.00
43119;BME280;28729;49.838;8.650;2023-11-19T10:14:37;99466.25;;;13.50;100.00
43119;BME280;28729;49.838;8.650;2023-11-19T10:18:48;99481.47;;;13.68;100.00
43119;BME280;28729;49.838;8.650;2023-11-19T10:22:55;99463.22;;;13.77;100.00
43119;BME280;28729;49.838;8.650;2023-11-19T10:26:57;99472.06;;;13.84;100.00
43119;BME280;28729;49.838;8.650;2023-11-19T10:30:59;99471.53;;;13.77;100.00
43119;BME280;28729;49.838;8.650;2023-11-19T10:35:05;99464.31;;;13.86;100.00
43119;BME280;28729;49.838;8.650;2023-11-19T10:39:10;99455.66;;;14.08;100.00
43119;BME280;28729;49.838;8.650;2023-11-19T10:43:12;99468.00;;;14.36;100.00
43119;BME280;28729;49.838;8.650;2023-11-19T10:47:15;99446.19;;;14.85;100.00
43119;BME280;28729;49.838;8.650;2023-11-19T10:51:20;99455.38;;;15.19;100.00
43119;BME280;28729;49.838;8.650;2023-11-19T10:55:27;99447.47;;;15.37;100.00
43119;BME280;28729;49.838;8.650;2023-11-19T10:59:30;99442.50;;;15.34;100.00
43119;BME280;28729;49.838;8.650;2023-11-19T11:03:39;99435.59;;;15.60;100.00
43119;BME280;28729;49.838;8.650;2023-11-19T11:07:43;99444.47;;;15.62;100.00
43119;BME280;28729;49.838;8.650;2023-11-19T11:11:47;99452.06;;;15.52;100.00
43119;BME280;28729;49.838;8.650;2023-11-19T11:15:50;99450.59;;;15.25;100.00
43119;BME280;28729;49.838;8.650;2023-11-19T11:19:52;99441.81;;;15.13;100.00
43119;BME280;28729;49.838;8.650;2023-11-19T11:29:04;99430.25;;;14.61;100.00
43119;BME280;28729;49.838;8.650;2023-11-19T11:37:18;99432.38;;;15.14;100.00
43119;BME280;28729;49.838;8.650;2023-11-19T11:41:24;99427.06;;;15.52;100.00
43119;BME280;28729;49.838;8.650;2023-11-19T11:45:40;99424.72;;;15.64;100.00
43119;BME280;28729;49.838;8.650;2023-11-19T11:49:45;99427.50;;;15.69;100.00
43119;BME280;28729;49.838;8.650;2023-11-19T11:53:49;99427.00;;;15.62;100.00
43119;BME280;28729;49.838;8.650;2023-11-19T11:57:54;99430.16;;;15.50;100.00
43119;BME280;28729;49.838;8.650;2023-11-19T12:01:58;99425.50;;;15.40;100.00
43119;BME280;28729;49.838;8.650;2023-11-19T12:06:01;99425.00;;;15.33;100.00
43119;BME280;28729;49.838;8.650;2023-11-19T12:10:08;99413.03;;;15.67;100.00
43119;BME280;28729;49.838;8.650;2023-11-19T12:14:13;99409.88;;;16.03;100.00
43119;BME280;28729;49.838;8.650;2023-11-19T12:18:18;99391.03;;;16.85;100.00
43119;BME280;28729;49.838;8.650;2023-11-19T12:22:21;99393.16;;;17.26;90.43
43119;BME280;28729;49.838;8.650;2023-11-19T12:26:37;99411.53;;;17.08;87.98
43119;BME280;28729;49.838;8.650;2023-11-19T12:30:39;99390.50;;;17.02;82.19
43119;BME280;28729;49.838;8.650;2023-11-19T12:34:41;99407.28;;;16.78;79.38
43119;BME280;28729;49.838;8.650;2023-11-19T12:38:43;99410.16;;;16.68;78.17
43119;BME280;28729;49.838;8.650;2023-11-19T12:42:48;99410.59;;;16.56;75.91
43119;BME280;28729;49.838;8.650;2023-11-19T12:47:03;99410.53;;;16.43;75.44
43119;BME280;28729;49.838;8.650;2023-11-19T12:51:07;99395.28;;;16.16;73.72
43119;BME280;28729;49.838;8.650;2023-11-19T12:55:29;99409.31;;;16.06;72.25
43119;BME280;28729;49.838;8.650;2023-11-19T12:59:32;99401.78;;;15.82;66.95
43119;BME280;28729;49.838;8.650;2023-11-19T13:03:36;99401.09;;;15.66;70.41
43119;BME280;28729;49.838;8.650;2023-11-19T13:07:42;99387.13;;;15.47;72.38
43119;BME280;28729;49.838;8.650;2023-11-19T13:11:45;99391.09;;;15.41;74.75
43119;BME280;28729;49.838;8.650;2023-11-19T13:15:48;99385.53;;;15.41;73.30
43119;BME280;28729;49.838;8.650;2023-11-19T13:19:51;99395.28;;;15.68;69.49
43119;BME280;28729;49.838;8.650;2023-11-19T13:23:54;99388.94;;;15.91;70.81
43119;BME280;28729;49.838;8.650;2023-11-19T13:27:56;99385.56;;;15.94;70.70
43119;BME280;28729;49.838;8.650;2023-11-19T13:31:58;99376.91;;;15.72;72.34
43119;BME280;28729;49.838;8.650;2023-11-19T13:36:01;99376.59;;;15.44;74.68
43119;BME280;28729;49.838;8.650;2023-11-19T13:40:07;99378.94;;;15.32;75.37
43119;BME280;28729;49.838;8.650;2023-11-19T13:44:12;99379.38;;;15.15;78.20
43119;BME280;28729;49.838;8.650;2023-11-19T13:48:14;99378.09;;;15.02;80.27
43119;BME280;28729;49.838;8.650;2023-11-19T13:52:17;99363.31;;;15.12;80.28
43119;BME280;28729;49.838;8.650;2023-11-19T13:56:19;99354.94;;;15.17;80.47
43119;BME280;28729;49.838;8.650;2023-11-19T14:00:21;99352.75;;;15.14;81.71
43119;BME280;28729;49.838;8.650;2023-11-19T14:04:25;99357.19;;;15.10;82.11
43119;BME280;28729;49.838;8.650;2023-11-19T14:08:28;99356.34;;;15.15;83.19
43119;BME280;28729;49.838;8.650;2023-11-19T14:12:30;99355.53;;;15.14;83.58
43119;BME280;28729;49.838;8.650;2023-11-19T14:16:32;99365.78;;;15.14;83.61
43119;BME280;28729;49.838;8.650;2023-11-19T14:20:42;99357.50;;;15.09;82.68
43119;BME280;28729;49.838;8.650;2023-11-19T14:24:44;99370.75;;;15.17;81.34
43119;BME280;28729;49.838;8.650;2023-11-19T14:28:46;99375.47;;;15.16;78.10
43119;BME280;28729;49.838;8.650;2023-11-19T14:32:53;99384.69;;;15.12;78.06
43119;BME280;28729;49.838;8.650;2023-11-19T14:36:56;99372.22;;;15.09;76.32
43119;BME280;28729;49.838;8.650;2023-11-19T14:41:00;99363.38;;;15.02;77.95
43119;BME280;28729;49.838;8.650;2023-11-19T14:45:02;99358.78;;;14.87;79.31
43119;BME280;28729;49.838;8.650;2023-11-19T14:49:04;99367.00;;;14.63;79.54
43119;BME280;28729;49.838;8.650;2023-11-19T14:53:06;99357.94;;;14.52;78.71
43119;BME280;28729;49.838;8.650;2023-11-19T14:57:08;99359.00;;;14.56;80.05
43119;BME280;28729;49.838;8.650;2023-11-19T15:01:13;99377.13;;;14.33;80.43
43119;BME280;28729;49.838;8.650;2023-11-19T15:05:16;99378.53;;;14.31;81.26
43119;BME280;28729;49.838;8.650;2023-11-19T15:09:18;99388.50;;;14.27;81.38
43119;BME280;28729;49.838;8.650;2023-11-19T15:13:23;99382.47;;;14.20;78.53
43119;BME280;28729;49.838;8.650;2023-11-19T15:17:25;99373.66;;;14.07;79.30
43119;BME280;28729;49.838;8.650;2023-11-19T15:21:29;99378.13;;;13.93;79.21
43119;BME280;28729;49.838;8.650;2023-11-19T15:30:16;99369.84;;;13.83;79.68
43119;BME280;28729;49.838;8.650;2023-11-19T15:34:18;99381.25;;;13.71;80.11
43119;BME280;28729;49.838;8.650;2023-11-19T15:38:22;99377.94;;;13.64;80.72
43119;BME280;28729;49.838;8.650;2023-11-19T15:42:25;99384.88;;;13.56;81.76
43119;BME280;28729;49.838;8.650;2023-11-19T15:46:27;99397.91;;;13.51;81.10
43119;BME280;28729;49.838;8.650;2023-11-19T15:50:29;99398.19;;;13.54;81.56
43119;BME280;28729;49.838;8.650;2023-11-19T15:54:31;99407.56;;;13.58;82.11
43119;BME280;28729;49.838;8.650;2023-11-19T15:58:35;99406.47;;;13.49;82.84
43119;BME280;28729;49.838;8.650;2023-11-19T16:02:38;99407.03;;;13.46;83.48
43119;BME280;28729;49.838;8.650;2023-11-19T16:06:41;99421.72;;;13.47;84.50
43119;BME280;28729;49.838;8.650;2023-11-19T16:10:43;99411.19;;;13.49;84.82
43119;BME280;28729;49.838;8.650;2023-11-19T16:14:45;99414.25;;;13.42;85.92
43119;BME280;28729;49.838;8.650;2023-11-19T16:18:48;99413.97;;;13.28;87.19
43119;BME280;28729;49.838;8.650;2023-11-19T16:22:50;99413.38;;;13.11;88.32
43119;BME280;28729;49.838;8.650;2023-11-19T16:26:52;99407.59;;;12.97;89.36
43119;BME280;28729;49.838;8.650;2023-11-19T16:30:54;99411.72;;;12.79;89.75
43119;BME280;28729;49.838;8.650;2023-11-19T16:34:56;99408.94;;;12.74;89.87
43119;BME280;28729;49.838;8.650;2023-11-19T16:38:59;99422.19;;;12.62;89.70
43119;BME280;28729;49.838;8.650;2023-11-19T16:43:05;99434.34;;;12.56;90.46
43119;BME280;28729;49.838;8.650;2023-11-19T16:47:07;99437.91;;;12.51;90.17
43119;BME280;28729;49.838;8.650;2023-11-19T16:51:13;99429.59;;;12.41;90.57
43119;BME280;28729;49.838;8.650;2023-11-19T16:55:18;99440.88;;;12.34;90.53
43119;BME280;28729;49.838;8.650;2023-11-19T16:59:21;99446.09;;;12.25;90.55
43119;BME280;28729;49.838;8.650;2023-11-19T17:03:31;99440.00;;;12.18;91.23
43119;BME280;28729;49.838;8.650;2023-11-19T17:07:34;99438.31;;;12.12;91.55
43119;BME280;28729;49.838;8.650;2023-11-19T17:11:36;99440.28;;;12.17;91.03
43119;BME280;28729;49.838;8.650;2023-11-19T17:15:41;99458.44;;;12.07;91.75
43119;BME280;28729;49.838;8.650;2023-11-19T17:19:47;99454.56;;;12.03;91.94
43119;BME280;28729;49.838;8.650;2023-11-19T17:23:50;99462.34;;;12.12;91.69
43119;BME280;28729;49.838;8.650;2023-11-19T17:27:51;99457.13;;;12.20;90.27
43119;BME280;28729;49.838;8.650;2023-11-19T17:31:53;99470.47;;;12.39;89.14
43119;BME280;28729;49.838;8.650;2023-11-19T17:35:55;99483.78;;;12.52;87.77
43119;BME280;28729;49.838;8.650;2023-11-19T17:39:57;99481.03;;;12.57;85.71
43119;BME280;28729;49.838;8.650;2023-11-19T17:43:59;99487.44;;;12.73;85.00
43119;BME280;28729;49.838;8.650;2023-11-19T17:48:02;99465.63;;;12.76;83.98
43119;BME280;28729;49.838;8.650;2023-11-19T17:52:04;99468.38;;;12.82;82.33
43119;BME280;28729;49.838;8.650;2023-11-19T17:56:06;99478.38;;;12.93;82.22
43119;BME280;28729;49.838;8.650;2023-11-19T18:00:09;99475.88;;;12.91;79.93
43119;BME280;28729;49.838;8.650;2023-11-19T18:04:17;99479.47;;;12.92;80.19
43119;BME280;28729;49.838;8.650;2023-11-19T18:08:20;99480.84;;;12.79;80.81
43119;BME280;28729;49.838;8.650;2023-11-19T18:12:24;99495.44;;;12.59;80.92
43119;BME280;28729;49.838;8.650;2023-11-19T18:16:26;99483.78;;;12.52;81.66
43119;BME280;28729;49.838;8.650;2023-11-19T18:20:32;99487.91;;;12.44;82.16
43119;BME280;28729;49.838;8.650;2023-11-19T18:24:34;99489.78;;;12.28;83.16
43119;BME280;28729;49.838;8.650;2023-11-19T18:28:37;99502.19;;;12.31;83.12
43119;BME280;28729;49.838;8.650;2023-11-19T18:32:40;99500.84;;;12.34;82.86
43119;BME280;28729;49.838;8.650;2023-11-19T18:36:43;99506.94;;;12.36;83.42
43119;BME280;28729;49.838;8.650;2023-11-19T18:40:45;99492.81;;;12.37;83.40
43119;BME280;28729;49.838;8.650;2023-11-19T18:44:48;99491.72;;;12.33;83.95
43119;BME280;28729;49.838;8.650;2023-11-19T18:48:51;99498.34;;;12.37;84.29
43119;BME280;28729;49.838;8.650;2023-11-19T18:52:54;99495.31;;;12.34;84.36
43119;BME280;28729;49.838;8.650;2023-11-19T18:56:56;99491.47;;;12.35;84.66
43119;BME280;28729;49.838;8.650;2023-11-19T19:00:58;99488.38;;;12.31;85.13
43119;BME280;28729;49.838;8.650;2023-11-19T19:05:01;99492.47;;;12.18;86.91
43119;BME280;28729;49.838;8.650;2023-11-19T19:09:04;99491.31;;;12.09;88.44
43119;BME280;28729;49.838;8.650;2023-11-19T19:13:06;99482.78;;;12.11;89.19
43119;BME280;28729;49.838;8.650;2023-11-19T19:17:09;99475.03;;;12.13;90.32
43119;BME280;28729;49.838;8.650;2023-11-19T19:21:12;99475.31;;;12.16;91.17
43119;BME280;28729;49.838;8.650;2023-11-19T19:25:14;99473.13;;;12.18;91.69
43119;BME280;28729;49.838;8.650;2023-11-19T19:29:17;99481.75;;;12.27;91.74
43119;BME280;28729;49.838;8.650;2023-11-19T19:33:21;99482.00;;;12.25;92.46
43119;BME280;28729;49.838;8.650;2023-11-19T19:37:26;99474.84;;;12.29;92.52
43119;BME280;28729;49.838;8.650;2023-11-19T19:41:28;99472.66;;;12.31;93.12
43119;BME280;28729;49.838;8.650;2023-11-19T19:45:30;99480.94;;;12.31;93.35
43119;BME280;28729;49.838;8.650;2023-11-19T19:49:33;99482.63;;;12.38;92.97
43119;BME280;28729;49.838;8.650;2023-11-19T19:53:35;99490.38;;;12.46;92.55
43119;BME280;28729;49.838;8.650;2023-11-19T19:57:42;99488.75;;;12.55;92.01
43119;BME280;28729;49.838;8.650;2023-11-19T20:01:45;99488.53;;;12.62;91.69
43119;BME280;28729;49.838;8.650;2023-11-19T20:05:47;99498.75;;;12.66;90.26
43119;BME280;28729;49.838;8.650;2023-11-19T20:09:50;99497.69;;;12.67;90.64
43119;BME280;28729;49.838;8.650;2023-11-19T20:13:58;99500.44;;;12.72;90.10
43119;BME280;28729;49.838;8.650;2023-11-19T20:18:00;99512.34;;;12.78;90.17
43119;BME280;28729;49.838;8.650;2023-11-19T20:22:04;99513.16;;;12.73;89.80
43119;BME280;28729;49.838;8.650;2023-11-19T20:26:06;99509.31;;;12.80;89.44
43119;BME280;28729;49.838;8.650;2023-11-19T20:30:09;99497.44;;;12.79;89.86
43119;BME280;28729;49.838;8.650;2023-11-19T20:34:10;99501.56;;;12.82;89.94
43119;BME280;28729;49.838;8.650;2023-11-19T20:38:15;99501.03;;;12.80;90.14
43119;BME280;28729;49.838;8.650;2023-11-19T20:42:18;99503.25;;;12.83;90.21
43119;BME280;28729;49.838;8.650;2023-11-19T20:46:23;99500.47;;;12.83;90.44
43119;BME280;28729;49.838;8.650;2023-11-19T20:50:30;99488.84;;;12.81;90.30
43119;BME280;28729;49.838;8.650;2023-11-19T20:54:32;99487.47;;;12.83;90.49
43119;BME280;28729;49.838;8.650;2023-11-19T20:58:37;99493.28;;;12.82;90.58
43119;BME280;28729;49.838;8.650;2023-11-19T21:02:39;99499.94;;;12.86;90.23
43119;BME280;28729;49.838;8.650;2023-11-19T21:06:42;99511.25;;;12.84;90.12
43119;BME280;28729;49.838;8.650;2023-11-19T21:10:48;99500.47;;;12.83;90.70
43119;BME280;28729;49.838;8.650;2023-11-19T21:14:53;99499.94;;;12.86;89.96
43119;BME280;28729;49.838;8.650;2023-11-19T21:18:55;99507.69;;;12.89;89.43
43119;BME280;28729;49.838;8.650;2023-11-19T21:22:59;99498.28;;;12.95;88.92
43119;BME280;28729;49.838;8.650;2023-11-19T21:27:01;99496.66;;;12.94;89.10
43119;BME280;28729;49.838;8.650;2023-11-19T21:31:03;99487.81;;;12.97;88.60
43119;BME280;28729;49.838;8.650;2023-11-19T21:35:08;99478.66;;;12.96;88.58